createdAt,value
2017-12-31T00:00:39.589Z,0
2017-12-31T00:01:39.887Z,0
2017-12-31T00:02:39.909Z,0
2017-12-31T00:03:39.925Z,0
2017-12-31T00:04:39.915Z,0
2017-12-31T00:05:54.122Z,0
2017-12-31T00:06:54.716Z,0
2017-12-31T00:07:39.760Z,0
2017-12-31T00:08:39.964Z,0
2017-12-31T00:09:39.478Z,0
2017-12-31T00:10:39.833Z,0
2017-12-31T00:11:54.747Z,0
2017-12-31T00:12:39.838Z,0
2017-12-31T00:13:39.803Z,0
2017-12-31T00:14:54.776Z,0
2017-12-31T00:15:39.860Z,0
2017-12-31T00:16:39.900Z,0
2017-12-31T00:17:39.657Z,0
2017-12-31T00:18:40.157Z,0
2017-12-31T00:19:39.954Z,0
2017-12-31T00:20:40.217Z,0
2017-12-31T00:21:40.025Z,0
2017-12-31T00:23:09.579Z,0
2017-12-31T00:23:54.940Z,0
2017-12-31T00:25:40.317Z,0
2017-12-31T00:26:40.054Z,0
2017-12-31T00:27:39.820Z,0
2017-12-31T00:28:39.841Z,0
2017-12-31T00:29:40.141Z,0
2017-12-31T00:30:40.387Z,0
2017-12-31T00:31:40.160Z,0
2017-12-31T00:32:40.400Z,0
2017-12-31T00:33:40.460Z,0
2017-12-31T00:34:40.497Z,0
2017-12-31T00:35:39.972Z,0
2017-12-31T00:36:40.476Z,0
2017-12-31T00:38:09.341Z,0
2017-12-31T00:38:40.656Z,0
2017-12-31T00:39:40.571Z,0
2017-12-31T00:40:40.571Z,0
2017-12-31T00:41:40.579Z,0
2017-12-31T00:42:40.622Z,0
2017-12-31T00:43:40.105Z,0
2017-12-31T00:44:40.643Z,0
2017-12-31T00:46:40.174Z,0
2017-12-31T00:47:40.680Z,0
2017-12-31T00:48:40.833Z,0
2017-12-31T00:49:40.718Z,0
2017-12-31T00:50:40.749Z,0
2017-12-31T00:51:40.500Z,0
2017-12-31T00:52:55.204Z,0
2017-12-31T00:53:40.606Z,0
2017-12-31T00:54:55.337Z,0
2017-12-31T00:55:40.652Z,0
2017-12-31T00:56:55.267Z,0
2017-12-31T00:57:40.361Z,0
2017-12-31T00:58:40.882Z,0
2017-12-31T00:59:55.591Z,0
2017-12-31T01:00:40.931Z,0
2017-12-31T01:01:55.630Z,0
2017-12-31T01:02:40.973Z,0
2017-12-31T01:03:41.004Z,0
2017-12-31T01:04:41.002Z,0
2017-12-31T01:05:40.782Z,0
2017-12-31T01:06:55.720Z,0
2017-12-31T01:07:41.022Z,0
2017-12-31T01:08:55.496Z,0
2017-12-31T01:09:55.783Z,0
2017-12-31T01:10:40.865Z,0
2017-12-31T01:11:40.870Z,0
2017-12-31T01:12:55.607Z,0
2017-12-31T01:15:40.931Z,0
2017-12-31T01:16:40.962Z,0
2017-12-31T01:17:55.891Z,0
2017-12-31T01:18:41.017Z,0
2017-12-31T01:19:40.793Z,0
2017-12-31T01:20:55.720Z,0
2017-12-31T01:21:40.786Z,0
2017-12-31T01:22:55.484Z,0
2017-12-31T01:23:40.847Z,0
2017-12-31T01:24:41.092Z,0
2017-12-31T01:25:55.783Z,0
2017-12-31T01:26:41.414Z,0
2017-12-31T01:27:40.893Z,0
2017-12-31T01:28:41.204Z,0
2017-12-31T01:29:41.201Z,0
2017-12-31T01:30:41.238Z,0
2017-12-31T01:31:40.971Z,0
2017-12-31T01:32:41.012Z,0
2017-12-31T01:33:41.552Z,0
2017-12-31T01:34:41.562Z,0
2017-12-31T01:35:41.551Z,0
2017-12-31T01:36:41.101Z,0
2017-12-31T01:37:41.364Z,0
2017-12-31T01:38:41.612Z,0
2017-12-31T01:39:40.878Z,0
2017-12-31T01:40:41.409Z,0
2017-12-31T01:42:11.020Z,0
2017-12-31T01:43:55.621Z,0
2017-12-31T01:44:41.716Z,0
2017-12-31T01:45:41.731Z,0
2017-12-31T01:46:41.265Z,0
2017-12-31T01:47:41.756Z,0
2017-12-31T01:49:41.590Z,0
2017-12-31T01:50:41.605Z,0
2017-12-31T01:51:41.852Z,0
2017-12-31T01:52:41.892Z,0
2017-12-31T01:54:41.652Z,0
2017-12-31T01:55:55.851Z,0
2017-12-31T01:56:41.656Z,0
2017-12-31T01:58:41.970Z,0
2017-12-31T01:59:41.514Z,0
2017-12-31T02:00:41.983Z,0
2017-12-31T02:01:41.770Z,0
2017-12-31T02:02:41.510Z,0
2017-12-31T02:03:41.817Z,0
2017-12-31T02:04:41.810Z,0
2017-12-31T02:05:41.836Z,0
2017-12-31T02:06:41.611Z,0
2017-12-31T02:07:56.931Z,0
2017-12-31T02:08:41.386Z,0
2017-12-31T02:09:56.588Z,0
2017-12-31T02:10:41.676Z,0
2017-12-31T02:11:42.012Z,0
2017-12-31T02:12:56.917Z,0
2017-12-31T02:13:41.740Z,0
2017-12-31T02:14:42.255Z,0
2017-12-31T02:15:41.767Z,0
2017-12-31T02:16:41.780Z,0
2017-12-31T02:17:41.813Z,0
2017-12-31T02:18:42.096Z,0
2017-12-31T02:19:42.074Z,0
2017-12-31T02:20:42.117Z,0
2017-12-31T02:22:42.140Z,0
2017-12-31T02:23:57.091Z,0
2017-12-31T02:24:42.432Z,0
2017-12-31T02:25:42.482Z,0
2017-12-31T02:26:42.234Z,0
2017-12-31T02:27:42.297Z,0
2017-12-31T02:28:57.193Z,0
2017-12-31T02:29:42.539Z,0
2017-12-31T02:30:42.277Z,0
2017-12-31T02:31:56.740Z,0
2017-12-31T02:32:42.620Z,0
2017-12-31T02:33:42.118Z,0
2017-12-31T02:34:42.337Z,0
2017-12-31T02:35:57.067Z,0
2017-12-31T02:36:57.055Z,0
2017-12-31T02:37:42.677Z,0
2017-12-31T02:38:42.690Z,0
2017-12-31T02:39:42.729Z,0
2017-12-31T02:40:42.729Z,0
2017-12-31T02:41:42.755Z,0
2017-12-31T02:42:42.779Z,0
2017-12-31T02:43:42.819Z,0
2017-12-31T02:44:57.210Z,0
2017-12-31T02:45:42.792Z,0
2017-12-31T02:46:42.822Z,0
2017-12-31T02:47:57.525Z,0
2017-12-31T02:48:42.365Z,0
2017-12-31T02:49:42.633Z,0
2017-12-31T02:50:57.546Z,0
2017-12-31T02:51:42.666Z,0
2017-12-31T02:52:42.681Z,0
2017-12-31T02:53:57.638Z,0
2017-12-31T02:54:42.957Z,0
2017-12-31T02:55:42.983Z,0
2017-12-31T02:56:42.756Z,0
2017-12-31T02:57:43.021Z,0
2017-12-31T02:58:42.813Z,0
2017-12-31T02:59:42.800Z,0
2017-12-31T03:01:11.922Z,0
2017-12-31T03:01:42.888Z,0
2017-12-31T03:02:43.123Z,0
2017-12-31T03:03:42.639Z,0
2017-12-31T03:04:43.158Z,0
2017-12-31T03:05:42.657Z,0
2017-12-31T03:06:43.175Z,0
2017-12-31T03:07:42.953Z,0
2017-12-31T03:09:57.921Z,0
2017-12-31T03:10:57.661Z,0
2017-12-31T03:11:42.508Z,0
2017-12-31T03:12:43.051Z,0
2017-12-31T03:13:57.465Z,0
2017-12-31T03:14:43.358Z,0
2017-12-31T03:15:58.008Z,0
2017-12-31T03:17:43.113Z,0
2017-12-31T03:18:43.120Z,0
2017-12-31T03:20:43.427Z,0
2017-12-31T03:21:43.219Z,0
2017-12-31T03:22:43.223Z,0
2017-12-31T03:24:43.250Z,0
2017-12-31T03:25:57.965Z,0
2017-12-31T03:26:43.259Z,0
2017-12-31T03:27:43.317Z,0
2017-12-31T03:28:43.075Z,0
2017-12-31T03:29:58.259Z,0
2017-12-31T03:30:58.314Z,0
2017-12-31T03:31:43.389Z,0
2017-12-31T03:33:13.012Z,0
2017-12-31T03:33:43.705Z,0
2017-12-31T03:34:58.370Z,0
2017-12-31T03:35:43.176Z,0
2017-12-31T03:36:43.446Z,0
2017-12-31T03:37:43.719Z,0
2017-12-31T03:38:58.436Z,0
2017-12-31T03:39:42.989Z,0
2017-12-31T03:40:43.258Z,0
2017-12-31T03:41:43.544Z,0
2017-12-31T03:42:43.555Z,0
2017-12-31T03:43:43.572Z,0
2017-12-31T03:44:43.824Z,0
2017-12-31T03:45:43.883Z,0
2017-12-31T03:46:43.119Z,0
2017-12-31T03:47:58.294Z,0
2017-12-31T03:48:43.899Z,0
2017-12-31T03:49:43.699Z,0
2017-12-31T03:50:43.210Z,0
2017-12-31T03:51:43.721Z,0
2017-12-31T03:52:43.990Z,0
2017-12-31T03:53:43.498Z,0
2017-12-31T03:54:44.032Z,0
2017-12-31T03:56:58.712Z,0
2017-12-31T03:57:43.604Z,0
2017-12-31T03:58:43.821Z,0
2017-12-31T03:59:43.605Z,0
2017-12-31T04:00:43.877Z,0
2017-12-31T04:02:43.890Z,0
2017-12-31T04:03:44.195Z,0
2017-12-31T04:04:43.720Z,0
2017-12-31T04:05:43.940Z,0
2017-12-31T04:07:44.013Z,0
2017-12-31T04:08:43.766Z,0
2017-12-31T04:09:58.679Z,0
2017-12-31T04:10:43.550Z,0
2017-12-31T04:11:44.337Z,0
2017-12-31T04:12:44.111Z,0
2017-12-31T04:13:44.105Z,0
2017-12-31T04:14:44.105Z,0
2017-12-31T04:15:44.384Z,0
2017-12-31T04:16:44.165Z,0
2017-12-31T04:17:44.436Z,0
2017-12-31T04:18:44.424Z,0
2017-12-31T04:19:59.111Z,0
2017-12-31T04:20:43.965Z,0
2017-12-31T04:21:44.233Z,0
2017-12-31T04:22:44.026Z,0
2017-12-31T04:23:44.271Z,0
2017-12-31T04:24:44.041Z,0
2017-12-31T04:25:44.316Z,0
2017-12-31T04:26:44.339Z,0
2017-12-31T04:27:44.342Z,0
2017-12-31T04:28:44.345Z,0
2017-12-31T04:29:44.377Z,0
2017-12-31T04:30:43.901Z,0
2017-12-31T04:31:44.415Z,0
2017-12-31T04:32:44.437Z,0
2017-12-31T04:33:44.722Z,0
2017-12-31T04:34:59.409Z,0
2017-12-31T04:35:59.431Z,0
2017-12-31T04:36:59.451Z,0
2017-12-31T04:37:44.776Z,0
2017-12-31T04:38:44.561Z,0
2017-12-31T04:39:44.536Z,0
2017-12-31T04:40:44.819Z,0
2017-12-31T04:41:59.268Z,0
2017-12-31T04:43:59.289Z,0
2017-12-31T04:44:44.645Z,0
2017-12-31T04:45:59.320Z,0
2017-12-31T04:46:44.687Z,0
2017-12-31T04:47:44.685Z,0
2017-12-31T04:48:44.736Z,0
2017-12-31T04:49:44.989Z,0
2017-12-31T04:50:44.762Z,0
2017-12-31T04:51:59.661Z,0
2017-12-31T04:52:44.783Z,0
2017-12-31T04:53:59.469Z,0
2017-12-31T04:54:45.170Z,0
2017-12-31T04:55:44.816Z,0
2017-12-31T04:56:59.768Z,0
2017-12-31T04:57:44.609Z,0
2017-12-31T04:58:59.562Z,0
2017-12-31T04:59:44.883Z,0
2017-12-31T05:00:45.188Z,0
2017-12-31T05:02:59.913Z,0
2017-12-31T05:03:45.234Z,0
2017-12-31T05:04:45.034Z,0
2017-12-31T05:05:45.229Z,0
2017-12-31T05:06:45.272Z,0
2017-12-31T05:07:59.960Z,0
2017-12-31T05:08:45.049Z,0
2017-12-31T05:09:45.322Z,0
2017-12-31T05:10:45.079Z,0
2017-12-31T05:11:45.413Z,0
2017-12-31T05:12:59.784Z,0
2017-12-31T05:13:45.389Z,0
2017-12-31T05:15:44.940Z,0
2017-12-31T05:16:45.195Z,0
2017-12-31T05:17:45.493Z,0
2017-12-31T05:18:45.464Z,0
2017-12-31T05:19:45.568Z,0
2017-12-31T05:20:45.252Z,0
2017-12-31T05:21:59.968Z,0
2017-12-31T05:23:00.235Z,0
2017-12-31T05:23:45.317Z,0
2017-12-31T05:24:45.102Z,0
2017-12-31T05:25:45.374Z,0
2017-12-31T05:26:45.598Z,0
2017-12-31T05:27:45.639Z,0
2017-12-31T05:29:00.071Z,0
2017-12-31T05:29:45.682Z,0
2017-12-31T05:31:45.735Z,0
2017-12-31T05:32:45.713Z,0
2017-12-31T05:34:00.151Z,0
2017-12-31T05:34:59.908Z,0
2017-12-31T05:35:45.511Z,0
2017-12-31T05:36:45.297Z,0
2017-12-31T05:37:45.556Z,0
2017-12-31T05:39:00.250Z,0
2017-12-31T05:39:45.606Z,0
2017-12-31T05:40:45.367Z,0
2017-12-31T05:41:45.856Z,0
2017-12-31T05:42:45.393Z,0
2017-12-31T05:43:45.651Z,0
2017-12-31T05:44:45.958Z,0
2017-12-31T05:45:45.955Z,0
2017-12-31T05:46:45.471Z,0
2017-12-31T05:47:45.996Z,0
2017-12-31T05:48:45.741Z,0
2017-12-31T05:49:45.768Z,0
2017-12-31T05:50:45.756Z,0
2017-12-31T05:52:00.776Z,0
2017-12-31T05:52:45.817Z,0
2017-12-31T05:53:46.125Z,0
2017-12-31T05:55:45.589Z,0
2017-12-31T05:57:00.554Z,0
2017-12-31T05:58:00.589Z,0
2017-12-31T05:58:45.945Z,0
2017-12-31T05:59:45.660Z,0
2017-12-31T06:00:45.968Z,0
2017-12-31T06:01:46.027Z,0
2017-12-31T06:02:45.985Z,0
2017-12-31T06:03:46.011Z,0
2017-12-31T06:05:00.922Z,0
2017-12-31T06:05:46.309Z,0
2017-12-31T06:06:46.057Z,0
2017-12-31T06:07:46.133Z,0
2017-12-31T06:08:46.121Z,0
2017-12-31T06:10:01.057Z,0
2017-12-31T06:11:01.057Z,0
2017-12-31T06:11:46.134Z,0
2017-12-31T06:12:45.915Z,0
2017-12-31T06:13:45.908Z,0
2017-12-31T06:14:45.938Z,0
2017-12-31T06:16:01.153Z,0
2017-12-31T06:16:46.074Z,0
2017-12-31T06:17:46.505Z,0
2017-12-31T06:18:46.276Z,0
2017-12-31T06:19:46.557Z,0
2017-12-31T06:20:45.767Z,0
2017-12-31T06:21:46.058Z,0
2017-12-31T06:22:46.081Z,0
2017-12-31T06:24:01.021Z,0
2017-12-31T06:24:46.386Z,0
2017-12-31T06:26:01.280Z,0
2017-12-31T06:27:01.341Z,0
2017-12-31T06:27:46.650Z,0
2017-12-31T06:28:46.442Z,0
2017-12-31T06:30:00.861Z,0
2017-12-31T06:30:46.197Z,0
2017-12-31T06:31:46.743Z,0
2017-12-31T06:32:46.595Z,0
2017-12-31T06:33:46.770Z,0
2017-12-31T06:34:46.570Z,0
2017-12-31T06:35:46.565Z,0
2017-12-31T06:36:46.795Z,0
2017-12-31T06:37:46.605Z,0
2017-12-31T06:38:46.832Z,0
2017-12-31T06:40:46.899Z,0
2017-12-31T06:41:46.657Z,0
2017-12-31T06:43:16.261Z,0
2017-12-31T06:43:46.691Z,0
2017-12-31T06:44:46.732Z,0
2017-12-31T06:45:46.750Z,0
2017-12-31T06:46:46.737Z,0
2017-12-31T06:47:47.019Z,0
2017-12-31T06:48:47.007Z,0
2017-12-31T06:49:46.796Z,0
2017-12-31T06:51:46.845Z,0
2017-12-31T06:52:46.849Z,0
2017-12-31T06:53:47.119Z,0
2017-12-31T06:55:01.556Z,0
2017-12-31T06:55:46.657Z,0
2017-12-31T06:56:47.160Z,0
2017-12-31T06:58:01.590Z,0
2017-12-31T06:58:47.173Z,0
2017-12-31T06:59:47.254Z,0
2017-12-31T07:00:46.976Z,0
2017-12-31T07:02:47.261Z,0
2017-12-31T07:03:47.034Z,0
2017-12-31T07:04:47.039Z,0
2017-12-31T07:05:47.096Z,0
2017-12-31T07:07:02.023Z,0
2017-12-31T07:07:47.337Z,0
2017-12-31T07:08:47.095Z,0
2017-12-31T07:09:47.172Z,0
2017-12-31T07:10:46.888Z,0
2017-12-31T07:11:47.184Z,0
2017-12-31T07:12:46.945Z,0
2017-12-31T07:13:47.216Z,0
2017-12-31T07:14:47.471Z,0
2017-12-31T07:15:47.251Z,0
2017-12-31T07:16:47.260Z,0
2017-12-31T07:17:47.519Z,0
2017-12-31T07:18:47.039Z,0
2017-12-31T07:19:47.624Z,0
2017-12-31T07:21:02.028Z,0
2017-12-31T07:22:47.645Z,0
2017-12-31T07:23:47.362Z,0
2017-12-31T07:24:47.409Z,0
2017-12-31T07:25:47.413Z,0
2017-12-31T07:26:47.424Z,0
2017-12-31T07:27:47.456Z,0
2017-12-31T07:28:47.232Z,0
2017-12-31T07:30:02.455Z,0
2017-12-31T07:30:47.488Z,0
2017-12-31T07:32:02.456Z,0
2017-12-31T07:33:02.432Z,0
2017-12-31T07:33:47.602Z,0
2017-12-31T07:35:02.221Z,0
2017-12-31T07:35:47.319Z,0
2017-12-31T07:37:02.287Z,5
2017-12-31T07:37:47.624Z,5
2017-12-31T07:39:02.560Z,5
2017-12-31T07:39:47.886Z,5
2017-12-31T07:41:02.345Z,5
2017-12-31T07:41:47.918Z,5
2017-12-31T07:42:47.418Z,5
2017-12-31T07:43:47.434Z,5
2017-12-31T07:44:47.751Z,5
2017-12-31T07:46:02.675Z,5
2017-12-31T07:46:48.009Z,5
2017-12-31T07:47:47.791Z,10
2017-12-31T07:48:47.777Z,10
2017-12-31T07:49:47.287Z,10
2017-12-31T07:50:47.590Z,5
2017-12-31T07:52:17.438Z,5
2017-12-31T07:53:02.547Z,5
2017-12-31T07:53:47.883Z,5
2017-12-31T07:54:47.653Z,5
2017-12-31T07:56:02.597Z,5
2017-12-31T07:56:47.683Z,5
2017-12-31T07:57:47.928Z,10
2017-12-31T07:59:17.596Z,10
2017-12-31T07:59:47.744Z,10
2017-12-31T08:00:48.237Z,10
2017-12-31T08:02:02.689Z,10
2017-12-31T08:02:48.084Z,10
2017-12-31T08:03:47.817Z,10
2017-12-31T08:04:47.834Z,10
2017-12-31T08:05:48.344Z,15
2017-12-31T08:06:48.369Z,15
2017-12-31T08:07:48.394Z,15
2017-12-31T08:08:48.378Z,15
2017-12-31T08:10:47.929Z,20
2017-12-31T08:11:48.459Z,20
2017-12-31T08:12:48.228Z,20
2017-12-31T08:14:03.185Z,20
2017-12-31T08:14:48.494Z,20
2017-12-31T08:16:02.674Z,20
2017-12-31T08:16:48.263Z,20
2017-12-31T08:18:03.220Z,20
2017-12-31T08:18:48.574Z,20
2017-12-31T08:19:48.570Z,20
2017-12-31T08:21:03.286Z,20
2017-12-31T08:21:48.123Z,20
2017-12-31T08:22:48.687Z,20
2017-12-31T08:23:48.393Z,20
2017-12-31T08:24:48.680Z,20
2017-12-31T08:25:48.180Z,20
2017-12-31T08:27:03.355Z,20
2017-12-31T08:27:48.726Z,20
2017-12-31T08:28:48.224Z,20
2017-12-31T08:29:48.526Z,20
2017-12-31T08:31:03.186Z,20
2017-12-31T08:31:48.308Z,20
2017-12-31T08:33:18.160Z,25
2017-12-31T08:34:03.519Z,25
2017-12-31T08:34:48.811Z,25
2017-12-31T08:35:48.880Z,25
2017-12-31T08:36:48.679Z,25
2017-12-31T08:37:48.897Z,25
2017-12-31T08:38:48.654Z,25
2017-12-31T08:40:48.475Z,25
2017-12-31T08:42:03.654Z,20
2017-12-31T08:42:48.998Z,20
2017-12-31T08:43:49.028Z,20
2017-12-31T08:44:49.046Z,20
2017-12-31T08:45:49.048Z,20
2017-12-31T08:46:48.783Z,20
2017-12-31T08:47:48.814Z,20
2017-12-31T08:48:49.091Z,20
2017-12-31T08:49:49.108Z,20
2017-12-31T08:50:48.921Z,20
2017-12-31T08:51:48.907Z,20
2017-12-31T08:52:48.912Z,20
2017-12-31T08:53:48.684Z,20
2017-12-31T08:56:03.631Z,15
2017-12-31T08:56:48.983Z,15
2017-12-31T08:57:49.027Z,15
2017-12-31T08:58:49.046Z,20
2017-12-31T09:00:03.962Z,20
2017-12-31T09:00:49.059Z,20
2017-12-31T09:01:49.366Z,20
2017-12-31T09:02:49.342Z,20
2017-12-31T09:03:49.356Z,20
2017-12-31T09:05:03.796Z,25
2017-12-31T09:05:49.369Z,25
2017-12-31T09:06:49.447Z,30
2017-12-31T09:07:48.937Z,30
2017-12-31T09:08:49.475Z,30
2017-12-31T09:09:48.714Z,35
2017-12-31T09:10:49.236Z,35
2017-12-31T09:11:49.480Z,35
2017-12-31T09:12:49.245Z,30
2017-12-31T09:14:04.204Z,30
2017-12-31T09:14:49.344Z,25
2017-12-31T09:15:49.336Z,25
2017-12-31T09:16:49.573Z,25
2017-12-31T09:17:49.352Z,25
2017-12-31T09:18:49.673Z,20
2017-12-31T09:19:49.414Z,20
2017-12-31T09:21:03.829Z,20
2017-12-31T09:21:49.421Z,20
2017-12-31T09:22:49.039Z,25
2017-12-31T09:23:49.463Z,25
2017-12-31T09:25:04.408Z,25
2017-12-31T09:25:49.495Z,25
2017-12-31T09:26:49.261Z,25
2017-12-31T09:27:49.027Z,25
2017-12-31T09:28:49.054Z,25
2017-12-31T09:30:04.497Z,25
2017-12-31T09:30:49.592Z,25
2017-12-31T09:31:49.860Z,25
2017-12-31T09:32:49.895Z,25
2017-12-31T09:33:49.622Z,25
2017-12-31T09:35:49.434Z,20
2017-12-31T09:37:04.413Z,20
2017-12-31T09:38:04.646Z,15
2017-12-31T09:38:49.756Z,15
2017-12-31T09:40:04.683Z,25
2017-12-31T09:40:49.787Z,25
2017-12-31T09:41:49.778Z,30
2017-12-31T09:42:49.790Z,25
2017-12-31T09:43:50.078Z,25
2017-12-31T09:44:50.238Z,15
2017-12-31T09:45:49.884Z,15
2017-12-31T09:46:49.897Z,15
2017-12-31T09:47:49.888Z,20
2017-12-31T09:48:50.170Z,20
2017-12-31T09:50:04.832Z,20
2017-12-31T09:50:50.207Z,20
2017-12-31T09:51:50.222Z,25
2017-12-31T09:53:04.657Z,25
2017-12-31T09:53:50.259Z,25
2017-12-31T09:54:50.025Z,20
2017-12-31T09:56:04.718Z,20
2017-12-31T09:56:50.304Z,20
2017-12-31T09:57:50.050Z,20
2017-12-31T09:58:50.093Z,20
2017-12-31T09:59:50.130Z,25
2017-12-31T10:00:50.499Z,20
2017-12-31T10:01:49.635Z,20
2017-12-31T10:02:50.172Z,20
2017-12-31T10:03:50.472Z,20
2017-12-31T10:05:04.901Z,20
2017-12-31T10:06:50.236Z,15
2017-12-31T10:08:05.187Z,15
2017-12-31T10:09:04.969Z,20
2017-12-31T10:10:05.194Z,20
2017-12-31T10:10:50.349Z,20
2017-12-31T10:11:50.360Z,20
2017-12-31T10:12:50.644Z,15
2017-12-31T10:13:50.613Z,15
2017-12-31T10:14:50.133Z,15
2017-12-31T10:16:05.059Z,20
2017-12-31T10:16:50.650Z,20
2017-12-31T10:17:50.704Z,25
2017-12-31T10:18:50.689Z,25
2017-12-31T10:19:50.748Z,25
2017-12-31T10:20:50.711Z,20
2017-12-31T10:21:50.266Z,20
2017-12-31T10:22:50.795Z,15
2017-12-31T10:23:50.524Z,15
2017-12-31T10:24:50.817Z,15
2017-12-31T10:25:50.891Z,15
2017-12-31T10:26:50.857Z,20
2017-12-31T10:27:50.609Z,20
2017-12-31T10:28:50.910Z,15
2017-12-31T10:30:05.336Z,20
2017-12-31T10:30:50.455Z,15
2017-12-31T10:31:50.969Z,20
2017-12-31T10:32:50.739Z,20
2017-12-31T10:33:50.450Z,20
2017-12-31T10:34:50.747Z,20
2017-12-31T10:35:51.025Z,20
2017-12-31T10:36:50.529Z,20
2017-12-31T10:37:50.284Z,20
2017-12-31T10:38:50.834Z,20
2017-12-31T10:40:05.502Z,15
2017-12-31T10:40:50.623Z,15
2017-12-31T10:41:50.895Z,20
2017-12-31T10:42:51.155Z,20
2017-12-31T10:43:50.637Z,20
2017-12-31T10:44:50.935Z,20
2017-12-31T10:45:50.943Z,20
2017-12-31T10:47:05.873Z,25
2017-12-31T10:49:05.929Z,30
2017-12-31T10:49:51.276Z,30
2017-12-31T10:50:51.058Z,25
2017-12-31T10:51:51.348Z,25
2017-12-31T10:53:51.110Z,25
2017-12-31T10:54:51.112Z,25
2017-12-31T10:56:06.041Z,20
2017-12-31T10:57:05.804Z,20
2017-12-31T10:58:05.826Z,20
2017-12-31T10:59:05.625Z,20
2017-12-31T10:59:51.303Z,20
2017-12-31T11:01:05.878Z,20
2017-12-31T11:01:51.485Z,20
2017-12-31T11:02:51.592Z,15
2017-12-31T11:03:51.282Z,15
2017-12-31T11:04:51.297Z,15
2017-12-31T11:05:51.545Z,10
2017-12-31T11:06:51.588Z,10
2017-12-31T11:08:06.281Z,10
2017-12-31T11:08:51.599Z,15
2017-12-31T11:09:51.388Z,10
2017-12-31T11:10:51.737Z,15
2017-12-31T11:12:06.353Z,15
2017-12-31T11:12:51.189Z,10
2017-12-31T11:13:51.735Z,15
2017-12-31T11:14:51.838Z,15
2017-12-31T11:15:51.254Z,15
2017-12-31T11:18:06.199Z,15
2017-12-31T11:18:51.843Z,15
2017-12-31T11:19:51.851Z,15
2017-12-31T11:20:51.878Z,15
2017-12-31T11:21:51.884Z,10
2017-12-31T11:22:51.846Z,10
2017-12-31T11:23:51.889Z,10
2017-12-31T11:24:51.679Z,5
2017-12-31T11:26:06.109Z,5
2017-12-31T11:26:51.694Z,5
2017-12-31T11:28:51.975Z,5
2017-12-31T11:29:52.011Z,5
2017-12-31T11:30:51.546Z,5
2017-12-31T11:31:52.441Z,10
2017-12-31T11:32:51.539Z,10
2017-12-31T11:33:51.860Z,15
2017-12-31T11:34:52.097Z,15
2017-12-31T11:35:52.092Z,15
2017-12-31T11:37:06.586Z,10
2017-12-31T11:37:51.651Z,10
2017-12-31T11:39:06.853Z,10
2017-12-31T11:40:06.454Z,15
2017-12-31T11:41:06.657Z,10
2017-12-31T11:41:52.244Z,15
2017-12-31T11:43:06.951Z,15
2017-12-31T11:43:51.999Z,15
2017-12-31T11:45:52.063Z,15
2017-12-31T11:46:52.049Z,15
2017-12-31T11:47:52.317Z,15
2017-12-31T11:48:52.112Z,10
2017-12-31T11:49:52.120Z,10
2017-12-31T11:50:52.430Z,10
2017-12-31T11:51:52.140Z,10
2017-12-31T11:52:52.192Z,10
2017-12-31T11:53:52.545Z,10
2017-12-31T11:55:07.118Z,15
2017-12-31T11:55:52.260Z,15
2017-12-31T11:56:52.527Z,10
2017-12-31T11:57:51.743Z,15
2017-12-31T11:59:07.227Z,15
2017-12-31T11:59:52.558Z,15
2017-12-31T12:00:52.349Z,15
2017-12-31T12:01:52.634Z,20
2017-12-31T12:02:52.646Z,25
2017-12-31T12:03:52.378Z,30
2017-12-31T12:05:07.067Z,30
2017-12-31T12:05:52.801Z,30
2017-12-31T12:06:52.693Z,25
2017-12-31T12:07:52.737Z,30
2017-12-31T12:08:52.708Z,25
2017-12-31T12:09:52.489Z,25
2017-12-31T12:10:52.593Z,30
2017-12-31T12:12:07.216Z,35
2017-12-31T12:12:52.846Z,40
2017-12-31T12:13:52.565Z,35
2017-12-31T12:15:07.262Z,30
2017-12-31T12:15:52.856Z,20
2017-12-31T12:16:52.897Z,15
2017-12-31T12:17:52.895Z,10
2017-12-31T12:18:52.936Z,15
2017-12-31T12:19:52.914Z,15
2017-12-31T12:20:52.709Z,20
2017-12-31T12:21:53.062Z,25
2017-12-31T12:22:53.016Z,35
2017-12-31T12:25:53.039Z,45
2017-12-31T12:26:52.848Z,45
2017-12-31T12:28:07.757Z,45
2017-12-31T12:28:53.083Z,45
2017-12-31T12:29:52.906Z,45
2017-12-31T12:31:07.800Z,45
2017-12-31T12:31:52.913Z,45
2017-12-31T12:32:52.928Z,40
2017-12-31T12:33:53.035Z,40
2017-12-31T12:34:52.730Z,40
2017-12-31T12:35:53.233Z,40
2017-12-31T12:36:52.999Z,40
2017-12-31T12:37:53.342Z,40
2017-12-31T12:38:53.349Z,40
2017-12-31T12:39:52.797Z,40
2017-12-31T12:40:53.109Z,40
2017-12-31T12:41:53.399Z,40
2017-12-31T12:42:53.388Z,40
2017-12-31T12:43:53.174Z,40
2017-12-31T12:44:53.150Z,40
2017-12-31T12:46:07.847Z,40
2017-12-31T12:47:08.126Z,40
2017-12-31T12:47:53.478Z,40
2017-12-31T12:48:53.531Z,35
2017-12-31T12:49:53.245Z,35
2017-12-31T12:51:07.969Z,30
2017-12-31T12:52:08.249Z,30
2017-12-31T12:52:53.565Z,30
2017-12-31T12:54:53.600Z,25
2017-12-31T12:55:53.667Z,25
2017-12-31T12:56:53.405Z,20
2017-12-31T12:57:53.161Z,20
2017-12-31T12:58:53.702Z,20
2017-12-31T12:59:53.506Z,15
2017-12-31T13:01:08.423Z,15
2017-12-31T13:01:53.771Z,15
2017-12-31T13:03:08.183Z,15
2017-12-31T13:03:53.549Z,15
2017-12-31T13:04:53.828Z,15
2017-12-31T13:05:53.583Z,15
2017-12-31T13:06:53.862Z,15
2017-12-31T13:07:53.843Z,15
2017-12-31T13:09:08.566Z,15
2017-12-31T13:09:53.661Z,15
2017-12-31T13:10:53.669Z,15
2017-12-31T13:12:08.622Z,15
2017-12-31T13:13:08.634Z,15
2017-12-31T13:14:08.666Z,20
2017-12-31T13:14:53.994Z,20
2017-12-31T13:15:53.767Z,20
2017-12-31T13:16:54.049Z,20
2017-12-31T13:18:08.230Z,20
2017-12-31T13:19:54.109Z,20
2017-12-31T13:20:53.890Z,25
2017-12-31T13:21:54.113Z,25
2017-12-31T13:22:54.198Z,25
2017-12-31T13:23:53.677Z,25
2017-12-31T13:24:53.965Z,25
2017-12-31T13:26:08.896Z,25
2017-12-31T13:26:54.232Z,25
2017-12-31T13:28:08.910Z,20
2017-12-31T13:28:54.042Z,20
2017-12-31T13:30:08.972Z,20
2017-12-31T13:30:54.089Z,20
2017-12-31T13:31:54.332Z,20
2017-12-31T13:32:54.333Z,20
2017-12-31T13:33:54.369Z,20
2017-12-31T13:35:08.815Z,15
2017-12-31T13:35:54.412Z,15
2017-12-31T13:36:54.455Z,20
2017-12-31T13:37:54.188Z,20
2017-12-31T13:38:54.257Z,20
2017-12-31T13:39:54.505Z,20
2017-12-31T13:40:54.522Z,20
2017-12-31T13:41:54.566Z,20
2017-12-31T13:42:54.560Z,20
2017-12-31T13:43:54.075Z,20
2017-12-31T13:44:54.605Z,20
2017-12-31T13:46:09.363Z,20
2017-12-31T13:46:54.404Z,20
2017-12-31T13:47:54.680Z,20
2017-12-31T13:48:54.682Z,20
2017-12-31T13:50:09.117Z,25
2017-12-31T13:51:09.130Z,25
2017-12-31T13:52:54.360Z,25
2017-12-31T13:53:54.542Z,25
2017-12-31T13:54:54.793Z,20
2017-12-31T13:55:54.812Z,20
2017-12-31T13:57:09.503Z,15
2017-12-31T13:57:54.850Z,15
2017-12-31T13:58:54.662Z,15
2017-12-31T13:59:54.889Z,15
2017-12-31T14:00:54.937Z,15
2017-12-31T14:01:54.437Z,15
2017-12-31T14:02:54.746Z,10
2017-12-31T14:03:54.974Z,15
2017-12-31T14:04:55.080Z,15
2017-12-31T14:06:09.694Z,15
2017-12-31T14:06:54.780Z,15
2017-12-31T14:07:55.079Z,15
2017-12-31T14:08:54.830Z,15
2017-12-31T14:09:55.105Z,15
2017-12-31T14:10:55.146Z,10
2017-12-31T14:11:54.876Z,10
2017-12-31T14:12:55.135Z,10
2017-12-31T14:13:54.929Z,10
2017-12-31T14:14:54.972Z,10
2017-12-31T14:15:54.702Z,10
2017-12-31T14:17:54.988Z,10
2017-12-31T14:18:55.004Z,5
2017-12-31T14:20:09.728Z,5
2017-12-31T14:20:55.341Z,5
2017-12-31T14:22:10.026Z,5
2017-12-31T14:22:55.387Z,5
2017-12-31T14:24:09.798Z,5
2017-12-31T14:25:10.072Z,5
2017-12-31T14:25:55.389Z,5
2017-12-31T14:26:55.440Z,5
2017-12-31T14:28:10.134Z,5
2017-12-31T14:28:55.233Z,5
2017-12-31T14:29:55.484Z,5
2017-12-31T14:31:10.174Z,5
2017-12-31T14:31:55.266Z,5
2017-12-31T14:33:10.262Z,5
2017-12-31T14:33:55.311Z,5
2017-12-31T14:34:55.117Z,5
2017-12-31T14:35:55.597Z,5
2017-12-31T14:36:55.680Z,5
2017-12-31T14:38:55.655Z,5
2017-12-31T14:39:55.436Z,5
2017-12-31T14:41:55.264Z,5
2017-12-31T14:42:55.542Z,5
2017-12-31T14:43:55.558Z,5
2017-12-31T14:44:55.587Z,5
2017-12-31T14:45:55.816Z,5
2017-12-31T14:46:55.855Z,5
2017-12-31T14:47:55.616Z,5
2017-12-31T14:48:55.888Z,0
2017-12-31T14:49:55.908Z,0
2017-12-31T14:50:55.917Z,0
2017-12-31T14:51:55.912Z,0
2017-12-31T14:53:10.639Z,0
2017-12-31T14:53:55.990Z,0
2017-12-31T14:54:55.771Z,0
2017-12-31T14:55:56.002Z,0
2017-12-31T14:56:55.763Z,0
2017-12-31T14:58:56.084Z,0
2017-12-31T14:59:56.134Z,0
2017-12-31T15:00:56.128Z,0
2017-12-31T15:01:56.154Z,0
2017-12-31T15:02:55.916Z,0
2017-12-31T15:03:56.196Z,0
2017-12-31T15:04:56.216Z,0
2017-12-31T15:05:55.457Z,0
2017-12-31T15:06:56.214Z,0
2017-12-31T15:08:11.018Z,0
2017-12-31T15:08:56.377Z,0
2017-12-31T15:09:56.295Z,0
2017-12-31T15:10:56.365Z,0
2017-12-31T15:11:56.336Z,0
2017-12-31T15:12:56.134Z,0
2017-12-31T15:15:10.598Z,0
2017-12-31T15:15:56.416Z,0
2017-12-31T15:16:56.211Z,0
2017-12-31T15:17:56.469Z,0
2017-12-31T15:18:56.494Z,0